sensor_id;sensor_type;location;lat;lon;timestamp;pressure;altitude;pressure_sealevel;temperature;humidity
54666;BME280;40566;50.006;36.180;2022-11-21T00:01:50;99381.34;;;1.94;78.93
54666;BME280;40566;50.006;36.180;2022-11-21T00:06:51;99374.56;;;1.97;79.12
54666;BME280;40566;50.006;36.180;2022-11-21T00:11:52;99374.53;;;2.01;78.90
54666;BME280;40566;50.006;36.180;2022-11-21T00:16:52;99380.50;;;2.03;78.76
54666;BME280;40566;50.006;36.180;2022-11-21T00:21:53;99400.06;;;2.04;79.01
54666;BME280;40566;50.006;36.180;2022-11-21T00:26:54;99388.16;;;2.06;78.87
54666;BME280;40566;50.006;36.180;2022-11-21T00:31:54;99397.50;;;1.97;79.12
54666;BME280;40566;50.006;36.180;2022-11-21T00:36:55;99393.25;;;1.96;79.38
54666;BME280;40566;50.006;36.180;2022-11-21T00:41:55;99389.00;;;1.97;79.47
54666;BME280;40566;50.006;36.180;2022-11-21T00:46:56;99383.88;;;1.95;79.68
54666;BME280;40566;50.006;36.180;2022-11-21T00:51:56;99379.66;;;1.97;79.60
54666;BME280;40566;50.006;36.180;2022-11-21T00:56:57;99369.44;;;1.99;79.63
54666;BME280;40566;50.006;36.180;2022-11-21T01:01:58;99376.25;;;2.02;79.40
54666;BME280;40566;50.006;36.180;2022-11-21T01:06:58;99372.84;;;2.10;79.46
54666;BME280;40566;50.006;36.180;2022-11-21T01:11:59;99349.88;;;2.09;79.11
54666;BME280;40566;50.006;36.180;2022-11-21T01:17:00;99349.03;;;2.07;79.17
54666;BME280;40566;50.006;36.180;2022-11-21T01:22:00;99351.59;;;2.07;79.21
54666;BME280;40566;50.006;36.180;2022-11-21T01:27:01;99315.88;;;2.05;79.25
54666;BME280;40566;50.006;36.180;2022-11-21T01:32:01;99349.91;;;2.10;79.28
54666;BME280;40566;50.006;36.180;2022-11-21T01:37:02;99363.50;;;2.14;79.43
54666;BME280;40566;50.006;36.180;2022-11-21T01:42:03;99307.38;;;2.08;79.48
54666;BME280;40566;50.006;36.180;2022-11-21T01:47:03;99306.53;;;2.06;79.48
54666;BME280;40566;50.006;36.180;2022-11-21T01:52:12;99306.50;;;2.15;79.42
54666;BME280;40566;50.006;36.180;2022-11-21T01:57:40;99315.00;;;2.17;79.05
54666;BME280;40566;50.006;36.180;2022-11-21T02:02:45;99303.97;;;2.10;79.41
54666;BME280;40566;50.006;36.180;2022-11-21T02:07:48;99317.59;;;2.14;78.98
54666;BME280;40566;50.006;36.180;2022-11-21T02:12:51;99306.53;;;2.12;79.32
54666;BME280;40566;50.006;36.180;2022-11-21T02:17:53;99310.75;;;2.19;79.14
54666;BME280;40566;50.006;36.180;2022-11-21T02:23:26;99313.31;;;2.22;79.17
54666;BME280;40566;50.006;36.180;2022-11-21T02:28:29;99324.38;;;2.20;79.24
54666;BME280;40566;50.006;36.180;2022-11-21T02:33:30;99309.91;;;2.18;79.41
54666;BME280;40566;50.006;36.180;2022-11-21T02:38:34;99308.22;;;2.16;79.22
54666;BME280;40566;50.006;36.180;2022-11-21T02:43:58;99296.31;;;2.10;79.55
54666;BME280;40566;50.006;36.180;2022-11-21T02:49:05;99296.31;;;2.12;79.63
54666;BME280;40566;50.006;36.180;2022-11-21T02:54:06;99300.56;;;2.14;79.57
54666;BME280;40566;50.006;36.180;2022-11-21T02:59:07;99295.47;;;2.14;79.71
54666;BME280;40566;50.006;36.180;2022-11-21T03:04:08;99289.53;;;2.14;79.51
54666;BME280;40566;50.006;36.180;2022-11-21T03:09:08;99305.69;;;2.17;79.76
54666;BME280;40566;50.006;36.180;2022-11-21T03:14:09;99310.78;;;2.24;79.58
54666;BME280;40566;50.006;36.180;2022-11-21T03:19:10;99325.22;;;2.25;79.52
54666;BME280;40566;50.006;36.180;2022-11-21T03:24:10;99325.25;;;2.22;79.65
54666;BME280;40566;50.006;36.180;2022-11-21T03:29:11;99321.00;;;2.17;79.71
54666;BME280;40566;50.006;36.180;2022-11-21T03:34:11;99336.28;;;2.16;79.94
54666;BME280;40566;50.006;36.180;2022-11-21T03:39:12;99338.84;;;2.16;79.91
54666;BME280;40566;50.006;36.180;2022-11-21T03:44:12;99333.72;;;2.13;80.04
54666;BME280;40566;50.006;36.180;2022-11-21T03:49:13;99353.28;;;2.12;80.13
54666;BME280;40566;50.006;36.180;2022-11-21T03:54:15;99360.09;;;2.15;79.97
54666;BME280;40566;50.006;36.180;2022-11-21T03:59:16;99347.34;;;2.12;80.27
54666;BME280;40566;50.006;36.180;2022-11-21T04:04:17;99341.41;;;2.10;79.92
54666;BME280;40566;50.006;36.180;2022-11-21T04:09:18;99321.00;;;2.02;80.27
54666;BME280;40566;50.006;36.180;2022-11-21T04:14:18;99303.13;;;2.01;80.34
54666;BME280;40566;50.006;36.180;2022-11-21T04:19:19;99279.31;;;1.98;80.34
54666;BME280;40566;50.006;36.180;2022-11-21T04:24:20;99287.81;;;2.07;80.15
54666;BME280;40566;50.006;36.180;2022-11-21T04:29:21;99273.34;;;2.01;80.21
54666;BME280;40566;50.006;36.180;2022-11-21T04:34:21;99260.63;;;2.03;80.08
54666;BME280;40566;50.006;36.180;2022-11-21T04:39:22;99267.41;;;2.10;80.22
54666;BME280;40566;50.006;36.180;2022-11-21T04:44:22;99272.50;;;2.13;80.04
54666;BME280;40566;50.006;36.180;2022-11-21T04:49:23;99286.09;;;2.16;80.05
54666;BME280;40566;50.006;36.180;2022-11-21T04:54:24;99300.56;;;2.17;79.94
54666;BME280;40566;50.006;36.180;2022-11-21T04:59:24;99321.81;;;2.24;79.89
54666;BME280;40566;50.006;36.180;2022-11-21T05:04:25;99326.06;;;2.33;79.65
54666;BME280;40566;50.006;36.180;2022-11-21T05:09:26;99282.72;;;2.25;80.01
54666;BME280;40566;50.006;36.180;2022-11-21T05:14:26;99258.88;;;2.26;79.75
54666;BME280;40566;50.006;36.180;2022-11-21T05:19:27;99269.09;;;2.28;79.87
54666;BME280;40566;50.006;36.180;2022-11-21T05:24:27;99253.78;;;2.29;79.75
54666;BME280;40566;50.006;36.180;2022-11-21T05:29:28;99242.69;;;2.30;79.69
54666;BME280;40566;50.006;36.180;2022-11-21T05:34:28;99275.00;;;2.41;79.64
54666;BME280;40566;50.006;36.180;2022-11-21T05:39:29;99266.50;;;2.42;79.61
54666;BME280;40566;50.006;36.180;2022-11-21T05:44:29;99293.75;;;2.41;79.54
54666;BME280;40566;50.006;36.180;2022-11-21T05:49:30;99298.81;;;2.43;79.60
54666;BME280;40566;50.006;36.180;2022-11-21T05:54:31;99310.72;;;2.42;79.67
54666;BME280;40566;50.006;36.180;2022-11-21T05:59:33;99303.06;;;2.44;79.57
54666;BME280;40566;50.006;36.180;2022-11-21T06:04:33;99290.31;;;2.51;79.62
54666;BME280;40566;50.006;36.180;2022-11-21T06:09:34;99297.97;;;2.53;79.39
54666;BME280;40566;50.006;36.180;2022-11-21T06:14:35;99288.56;;;2.61;79.45
54666;BME280;40566;50.006;36.180;2022-11-21T06:19:35;99270.66;;;2.72;79.29
54666;BME280;40566;50.006;36.180;2022-11-21T06:24:36;99263.84;;;2.75;79.15
54666;BME280;40566;50.006;36.180;2022-11-21T06:29:36;99253.63;;;2.77;79.03
54666;BME280;40566;50.006;36.180;2022-11-21T06:34:37;99240.78;;;2.86;78.71
54666;BME280;40566;50.006;36.180;2022-11-21T06:39:38;99230.50;;;3.03;78.16
54666;BME280;40566;50.006;36.180;2022-11-21T06:44:38;99214.31;;;3.04;78.34
54666;BME280;40566;50.006;36.180;2022-11-21T06:49:39;99230.41;;;3.14;78.10
54666;BME280;40566;50.006;36.180;2022-11-21T06:54:39;99232.13;;;3.12;78.06
54666;BME280;40566;50.006;36.180;2022-11-21T06:59:40;99233.88;;;3.08;78.61
54666;BME280;40566;50.006;36.180;2022-11-21T07:04:40;99215.13;;;3.09;78.58
54666;BME280;40566;50.006;36.180;2022-11-21T07:09:41;99225.31;;;3.14;78.52
54666;BME280;40566;50.006;36.180;2022-11-21T07:14:44;99244.94;;;3.10;78.81
54666;BME280;40566;50.006;36.180;2022-11-21T07:19:45;99243.19;;;3.14;78.66
54666;BME280;40566;50.006;36.180;2022-11-21T07:24:45;99225.34;;;3.11;78.59
54666;BME280;40566;50.006;36.180;2022-11-21T07:29:46;99227.00;;;3.18;78.88
54666;BME280;40566;50.006;36.180;2022-11-21T07:34:46;99231.25;;;3.21;78.84
54666;BME280;40566;50.006;36.180;2022-11-21T07:39:47;99226.97;;;3.23;78.91
54666;BME280;40566;50.006;36.180;2022-11-21T07:44:47;99216.72;;;3.27;78.63
54666;BME280;40566;50.006;36.180;2022-11-21T07:49:48;99213.22;;;3.37;78.56
54666;BME280;40566;50.006;36.180;2022-11-21T07:54:48;99207.22;;;3.43;78.59
54666;BME280;40566;50.006;36.180;2022-11-21T07:59:49;99230.19;;;3.49;78.28
54666;BME280;40566;50.006;36.180;2022-11-21T08:04:50;99220.78;;;3.56;78.33
54666;BME280;40566;50.006;36.180;2022-11-21T08:09:51;99230.06;;;3.65;78.19
54666;BME280;40566;50.006;36.180;2022-11-21T08:14:51;99224.94;;;3.66;78.05
54666;BME280;40566;50.006;36.180;2022-11-21T08:19:52;99234.28;;;3.72;77.92
54666;BME280;40566;50.006;36.180;2022-11-21T08:24:53;99229.16;;;3.72;78.12
54666;BME280;40566;50.006;36.180;2022-11-21T08:29:54;99230.84;;;3.76;78.22
54666;BME280;40566;50.006;36.180;2022-11-21T08:34:54;99224.88;;;3.74;78.25
54666;BME280;40566;50.006;36.180;2022-11-21T08:39:55;99218.94;;;3.73;78.33
54666;BME280;40566;50.006;36.180;2022-11-21T08:44:58;99200.97;;;3.76;78.33
54666;BME280;40566;50.006;36.180;2022-11-21T08:49:58;99198.44;;;3.75;78.39
54666;BME280;40566;50.006;36.180;2022-11-21T08:54:59;99172.84;;;3.80;78.25
54666;BME280;40566;50.006;36.180;2022-11-21T08:59:59;99183.00;;;3.84;78.16
54666;BME280;40566;50.006;36.180;2022-11-21T09:05:00;99190.63;;;3.90;78.15
54666;BME280;40566;50.006;36.180;2022-11-21T09:10:01;99213.50;;;4.09;77.73
54666;BME280;40566;50.006;36.180;2022-11-21T09:15:03;99208.09;;;4.30;77.06
54666;BME280;40566;50.006;36.180;2022-11-21T09:20:22;99205.53;;;4.32;77.12
54666;BME280;40566;50.006;36.180;2022-11-21T09:25:23;99202.13;;;4.33;77.43
54666;BME280;40566;50.006;36.180;2022-11-21T09:30:23;99226.91;;;4.29;77.37
54666;BME280;40566;50.006;36.180;2022-11-21T09:35:24;99192.88;;;4.21;77.81
54666;BME280;40566;50.006;36.180;2022-11-21T09:40:24;99170.75;;;4.14;78.02
54666;BME280;40566;50.006;36.180;2022-11-21T09:45:31;99174.19;;;4.13;78.28
54666;BME280;40566;50.006;36.180;2022-11-21T09:50:37;99190.41;;;4.10;78.30
54666;BME280;40566;50.006;36.180;2022-11-21T10:00:50;99195.22;;;4.40;77.63
54666;BME280;40566;50.006;36.180;2022-11-21T10:05:58;99185.94;;;4.29;77.77
54666;BME280;40566;50.006;36.180;2022-11-21T10:17:18;99199.72;;;4.19;78.03
54666;BME280;40566;50.006;36.180;2022-11-21T10:28:09;99211.63;;;4.25;77.93
54666;BME280;40566;50.006;36.180;2022-11-21T10:33:19;99203.97;;;4.20;78.02
54666;BME280;40566;50.006;36.180;2022-11-21T10:38:24;99192.97;;;4.12;78.35
54666;BME280;40566;50.006;36.180;2022-11-21T10:43:34;99195.50;;;4.13;78.32
54666;BME280;40566;50.006;36.180;2022-11-21T10:49:02;99200.72;;;4.06;78.47
54666;BME280;40566;50.006;36.180;2022-11-21T10:54:08;99209.19;;;4.11;78.48
54666;BME280;40566;50.006;36.180;2022-11-21T10:59:29;99214.34;;;4.06;78.47
54666;BME280;40566;50.006;36.180;2022-11-21T11:04:31;99200.69;;;4.07;78.76
54666;BME280;40566;50.006;36.180;2022-11-21T11:09:34;99200.63;;;4.12;78.54
54666;BME280;40566;50.006;36.180;2022-11-21T11:14:34;99187.78;;;4.18;78.49
54666;BME280;40566;50.006;36.180;2022-11-21T11:19:35;99199.81;;;4.11;78.50
54666;BME280;40566;50.006;36.180;2022-11-21T11:24:35;99196.41;;;4.11;78.87
54666;BME280;40566;50.006;36.180;2022-11-21T11:29:49;99192.13;;;4.11;78.55
54666;BME280;40566;50.006;36.180;2022-11-21T11:45:28;99182.13;;;3.88;79.26
54666;BME280;40566;50.006;36.180;2022-11-21T11:50:51;99171.03;;;3.89;79.24
54666;BME280;40566;50.006;36.180;2022-11-21T12:06:18;99198.41;;;3.81;79.66
54666;BME280;40566;50.006;36.180;2022-11-21T12:11:29;99199.25;;;3.78;79.73
54666;BME280;40566;50.006;36.180;2022-11-21T12:16:51;99206.94;;;3.80;79.52
54666;BME280;40566;50.006;36.180;2022-11-21T12:21:52;99210.31;;;3.85;79.35
54666;BME280;40566;50.006;36.180;2022-11-21T12:27:18;99228.94;;;3.96;79.14
54666;BME280;40566;50.006;36.180;2022-11-21T12:59:44;99223.16;;;3.77;79.67
54666;BME280;40566;50.006;36.180;2022-11-21T13:04:48;99218.09;;;3.70;80.03
54666;BME280;40566;50.006;36.180;2022-11-21T13:09:52;99214.66;;;3.71;79.88
54666;BME280;40566;50.006;36.180;2022-11-21T13:25:35;99178.97;;;3.58;80.11
54666;BME280;40566;50.006;36.180;2022-11-21T13:30:49;99167.91;;;3.60;79.92
54666;BME280;40566;50.006;36.180;2022-11-21T13:40:50;99113.47;;;3.47;80.43
54666;BME280;40566;50.006;36.180;2022-11-21T14:14:27;99117.72;;;3.48;79.78
54666;BME280;40566;50.006;36.180;2022-11-21T14:19:29;99114.28;;;3.52;79.70
54666;BME280;40566;50.006;36.180;2022-11-21T14:24:31;99107.50;;;3.48;79.62
54666;BME280;40566;50.006;36.180;2022-11-21T14:29:39;99104.06;;;3.49;79.36
54666;BME280;40566;50.006;36.180;2022-11-21T14:34:40;99113.47;;;3.47;79.74
54666;BME280;40566;50.006;36.180;2022-11-21T14:39:41;99108.34;;;3.45;79.60
54666;BME280;40566;50.006;36.180;2022-11-21T14:44:42;99121.06;;;3.51;79.86
54666;BME280;40566;50.006;36.180;2022-11-21T14:49:50;99115.09;;;3.55;79.83
54666;BME280;40566;50.006;36.180;2022-11-21T14:54:58;99113.31;;;3.64;79.79
54666;BME280;40566;50.006;36.180;2022-11-21T14:59:59;99122.72;;;3.60;79.62
54666;BME280;40566;50.006;36.180;2022-11-21T15:05:04;99113.25;;;3.67;79.69
54666;BME280;40566;50.006;36.180;2022-11-21T15:10:05;99121.75;;;3.69;79.72
54666;BME280;40566;50.006;36.180;2022-11-21T15:15:33;99133.69;;;3.70;79.52
54666;BME280;40566;50.006;36.180;2022-11-21T15:20:35;99120.88;;;3.73;79.58
54666;BME280;40566;50.006;36.180;2022-11-21T15:25:44;99123.41;;;3.76;79.45
54666;BME280;40566;50.006;36.180;2022-11-21T15:30:46;99122.59;;;3.72;79.71
54666;BME280;40566;50.006;36.180;2022-11-21T15:35:52;99108.13;;;3.70;79.78
54666;BME280;40566;50.006;36.180;2022-11-21T15:46:32;99100.44;;;3.71;79.68
54666;BME280;40566;50.006;36.180;2022-11-21T15:51:40;99091.06;;;3.70;80.05
54666;BME280;40566;50.006;36.180;2022-11-21T15:56:41;99081.66;;;3.74;80.16
54666;BME280;40566;50.006;36.180;2022-11-21T16:01:42;99082.44;;;3.79;80.01
54666;BME280;40566;50.006;36.180;2022-11-21T16:06:44;99072.19;;;3.82;79.96
54666;BME280;40566;50.006;36.180;2022-11-21T16:11:45;99067.88;;;3.87;79.97
54666;BME280;40566;50.006;36.180;2022-11-21T16:16:47;99080.69;;;3.83;80.12
54666;BME280;40566;50.006;36.180;2022-11-21T16:21:47;99097.78;;;3.81;79.91
54666;BME280;40566;50.006;36.180;2022-11-21T16:26:48;99084.16;;;3.77;80.20
54666;BME280;40566;50.006;36.180;2022-11-21T16:31:52;99050.88;;;3.83;79.99
54666;BME280;40566;50.006;36.180;2022-11-21T16:36:55;99040.66;;;3.82;80.07
54666;BME280;40566;50.006;36.180;2022-11-21T16:41:55;99027.09;;;3.73;80.09
54666;BME280;40566;50.006;36.180;2022-11-21T16:46:56;99009.97;;;3.77;79.91
54666;BME280;40566;50.006;36.180;2022-11-21T16:51:57;98998.06;;;3.76;80.18
54666;BME280;40566;50.006;36.180;2022-11-21T16:56:58;98973.31;;;3.78;80.29
54666;BME280;40566;50.006;36.180;2022-11-21T17:01:58;98985.22;;;3.82;80.31
54666;BME280;40566;50.006;36.180;2022-11-21T17:06:59;98977.44;;;3.90;80.17
54666;BME280;40566;50.006;36.180;2022-11-21T17:12:00;98953.53;;;3.91;80.14
54666;BME280;40566;50.006;36.180;2022-11-21T17:17:00;98941.59;;;3.91;80.24
54666;BME280;40566;50.006;36.180;2022-11-21T17:22:02;98952.69;;;3.92;80.43
54666;BME280;40566;50.006;36.180;2022-11-21T17:27:03;98939.00;;;3.94;80.49
54666;BME280;40566;50.006;36.180;2022-11-21T17:32:05;98926.09;;;4.01;80.59
54666;BME280;40566;50.006;36.180;2022-11-21T17:37:06;98911.56;;;4.03;80.52
54666;BME280;40566;50.006;36.180;2022-11-21T17:42:07;98926.06;;;4.05;80.71
54666;BME280;40566;50.006;36.180;2022-11-21T17:47:08;98931.09;;;4.11;80.69
54666;BME280;40566;50.006;36.180;2022-11-21T17:52:08;98917.41;;;4.12;80.70
54666;BME280;40566;50.006;36.180;2022-11-21T17:57:09;98901.22;;;4.12;80.66
54666;BME280;40566;50.006;36.180;2022-11-21T18:02:09;98895.19;;;4.14;80.58
54666;BME280;40566;50.006;36.180;2022-11-21T18:07:11;98900.25;;;4.21;80.84
54666;BME280;40566;50.006;36.180;2022-11-21T18:12:12;98891.66;;;4.23;80.88
54666;BME280;40566;50.006;36.180;2022-11-21T18:17:13;98892.47;;;4.25;81.18
54666;BME280;40566;50.006;36.180;2022-11-21T18:22:13;98892.34;;;4.34;81.11
54666;BME280;40566;50.006;36.180;2022-11-21T18:27:14;98905.00;;;4.42;81.24
54666;BME280;40566;50.006;36.180;2022-11-21T18:32:15;98883.63;;;4.45;81.22
54666;BME280;40566;50.006;36.180;2022-11-21T18:37:15;98879.31;;;4.48;81.41
54666;BME280;40566;50.006;36.180;2022-11-21T18:42:16;98873.22;;;4.54;81.46
54666;BME280;40566;50.006;36.180;2022-11-21T18:47:16;98874.84;;;4.58;81.63
54666;BME280;40566;50.006;36.180;2022-11-21T18:52:17;98879.00;;;4.64;81.63
54666;BME280;40566;50.006;36.180;2022-11-21T18:57:17;98882.34;;;4.70;81.92
54666;BME280;40566;50.006;36.180;2022-11-21T19:02:18;98867.66;;;4.79;81.61
54666;BME280;40566;50.006;36.180;2022-11-21T19:07:18;98865.03;;;4.82;81.68
54666;BME280;40566;50.006;36.180;2022-11-21T19:12:19;98864.97;;;4.85;81.75
54666;BME280;40566;50.006;36.180;2022-11-21T19:17:20;98859.69;;;4.94;81.94
54666;BME280;40566;50.006;36.180;2022-11-21T19:22:21;98857.00;;;5.00;81.80
54666;BME280;40566;50.006;36.180;2022-11-21T19:27:22;98868.00;;;5.05;81.98
54666;BME280;40566;50.006;36.180;2022-11-21T19:32:24;98865.38;;;5.08;81.99
54666;BME280;40566;50.006;36.180;2022-11-21T19:37:24;98863.59;;;5.12;82.10
54666;BME280;40566;50.006;36.180;2022-11-21T19:42:26;98866.09;;;5.15;82.06
54666;BME280;40566;50.006;36.180;2022-11-21T19:47:27;98865.97;;;5.21;82.31
54666;BME280;40566;50.006;36.180;2022-11-21T19:52:28;98892.25;;;5.31;82.23
54666;BME280;40566;50.006;36.180;2022-11-21T19:57:29;98873.47;;;5.30;82.39
54666;BME280;40566;50.006;36.180;2022-11-21T20:02:29;98875.13;;;5.33;82.39
54666;BME280;40566;50.006;36.180;2022-11-21T20:07:32;98864.78;;;5.39;82.63
54666;BME280;40566;50.006;36.180;2022-11-21T20:12:35;98853.44;;;5.49;82.53
54666;BME280;40566;50.006;36.180;2022-11-21T20:17:36;98870.31;;;5.60;82.67
54666;BME280;40566;50.006;36.180;2022-11-21T20:22:38;98864.16;;;5.67;82.56
54666;BME280;40566;50.006;36.180;2022-11-21T20:27:38;98859.75;;;5.72;82.70
54666;BME280;40566;50.006;36.180;2022-11-21T20:32:39;98856.97;;;5.83;82.78
54666;BME280;40566;50.006;36.180;2022-11-21T20:37:40;98842.28;;;5.88;82.87
54666;BME280;40566;50.006;36.180;2022-11-21T20:42:40;98836.19;;;5.93;82.91
54666;BME280;40566;50.006;36.180;2022-11-21T20:47:41;98834.28;;;6.02;83.11
54666;BME280;40566;50.006;36.180;2022-11-21T20:52:41;98837.53;;;6.10;83.16
54666;BME280;40566;50.006;36.180;2022-11-21T20:57:42;98822.81;;;6.17;83.36
54666;BME280;40566;50.006;36.180;2022-11-21T21:02:44;98826.88;;;6.25;83.37
54666;BME280;40566;50.006;36.180;2022-11-21T21:07:45;98831.00;;;6.32;83.47
54666;BME280;40566;50.006;36.180;2022-11-21T21:12:45;98825.69;;;6.39;83.52
54666;BME280;40566;50.006;36.180;2022-11-21T21:17:46;98815.25;;;6.45;83.74
54666;BME280;40566;50.006;36.180;2022-11-21T21:22:46;98809.91;;;6.52;83.77
54666;BME280;40566;50.006;36.180;2022-11-21T21:27:48;98797.69;;;6.61;83.79
54666;BME280;40566;50.006;36.180;2022-11-21T21:32:53;98814.69;;;6.66;83.81
54666;BME280;40566;50.006;36.180;2022-11-21T21:37:53;98797.44;;;6.71;83.92
54666;BME280;40566;50.006;36.180;2022-11-21T21:42:54;98785.28;;;6.77;83.95
54666;BME280;40566;50.006;36.180;2022-11-21T21:47:55;98764.53;;;6.83;84.06
54666;BME280;40566;50.006;36.180;2022-11-21T21:52:59;98763.44;;;6.91;84.04
54666;BME280;40566;50.006;36.180;2022-11-21T21:58:00;98753.03;;;6.96;84.22
54666;BME280;40566;50.006;36.180;2022-11-21T22:03:00;98733.06;;;7.04;84.45
54666;BME280;40566;50.006;36.180;2022-11-21T22:08:01;98719.16;;;7.11;84.45
54666;BME280;40566;50.006;36.180;2022-11-21T22:13:02;98714.56;;;7.21;84.65
54666;BME280;40566;50.006;36.180;2022-11-21T22:18:02;98703.28;;;7.25;84.83
54666;BME280;40566;50.006;36.180;2022-11-21T22:23:03;98697.06;;;7.32;85.10
54666;BME280;40566;50.006;36.180;2022-11-21T22:28:03;98702.94;;;7.36;85.30
54666;BME280;40566;50.006;36.180;2022-11-21T22:33:04;98689.69;;;7.48;85.61
54666;BME280;40566;50.006;36.180;2022-11-21T22:38:05;98676.41;;;7.62;85.56
54666;BME280;40566;50.006;36.180;2022-11-21T22:43:06;98670.09;;;7.71;85.72
54666;BME280;40566;50.006;36.180;2022-11-21T22:48:06;98664.13;;;7.70;85.99
54666;BME280;40566;50.006;36.180;2022-11-21T22:53:07;98660.59;;;7.73;86.21
54666;BME280;40566;50.006;36.180;2022-11-21T22:58:07;98645.94;;;7.75;86.37
54666;BME280;40566;50.006;36.180;2022-11-21T23:03:08;98642.47;;;7.76;86.59
54666;BME280;40566;50.006;36.180;2022-11-21T23:08:09;98631.00;;;7.85;86.61
54666;BME280;40566;50.006;36.180;2022-11-21T23:13:09;98628.13;;;7.94;86.72
54666;BME280;40566;50.006;36.180;2022-11-21T23:18:10;98621.84;;;8.01;86.60
54666;BME280;40566;50.006;36.180;2022-11-21T23:23:11;98624.19;;;8.07;86.74
54666;BME280;40566;50.006;36.180;2022-11-21T23:28:11;98621.63;;;8.07;87.04
54666;BME280;40566;50.006;36.180;2022-11-21T23:33:12;98631.81;;;8.10;87.30
54666;BME280;40566;50.006;36.180;2022-11-21T23:38:15;98643.09;;;8.08;87.30
54666;BME280;40566;50.006;36.180;2022-11-21T23:43:16;98650.81;;;8.08;87.47
54666;BME280;40566;50.006;36.180;2022-11-21T23:48:18;98661.00;;;8.11;87.63
54666;BME280;40566;50.006;36.180;2022-11-21T23:53:20;98658.16;;;8.19;87.70
54666;BME280;40566;50.006;36.180;2022-11-21T23:58:20;98657.31;;;8.18;87.69
